ボードー の空港の天気 - METARとTAF

Bodo Vi ( ENBO / BOO ) - ノルウェー ヌールラン県ボードー
飛行場実況気象(Metar)
観測時間06/29 03:50 CEST (06/29 01:50 UTC)
風向・風速南 3m/s
視程10km以上
天気現象周辺でしゅう雨
少しの雲 雲底高度 430m
全天の4割程度の雲 雲底高度 910m
気温9℃
湿度87%
気圧1015hPa
METARENBO 290150Z 17005KT 9999 VCSH FEW014CB SCT030 09/07 Q1015
過去の天気等 Google飛行場航空写真 Wunderground天気予報

過去48時間のMETAR

飛行場予報(TAF)
発表時間: -
29日2時 CEST ~ 29日11時 CEST に 確率 40% で一時的に
天気現象しゅう雨
全天の4割程度の積乱雲 雲底高度 430m
29日12時 CEST ~ 29日14時 CEST に徐々に
風向・風速北 5m/s
29日23時 CEST ~ 30日1時 CEST に徐々に
風向・風速東 4m/s
TAF ENBO 2900/2924 VRB05KT 9999 SCT025
PROB40 TEMPO 2900/2909 SHRA SCT014CB
BECMG 2910/2912 01010KT
BECMG 2921/2923 09008KT